Time;durP1;ratioP1;P1;durP2;ratioP2;P2;SDS_P1;SDS_P2;PMS_P1;PMS_P2;Temp;Humidity;BMP_temperature;BMP_pressure;BME280_temperature;BME280_humidity;BME280_pressure;Samples;Min_cycle;Max_cycle;Signal;HPM_P1;HPM_P2
2023/03/12 00:01:28;;;;;;;82.35;13.57;;;;;;;;;;5003825;28;20033;-73
2023/03/12 00:03:55;;;;;;;92.70;14.80;;;;;;;;;;5004840;28;20413;-73
2023/03/12 00:06:21;;;;;;;100.15;14.23;;;;;;;;;;4998654;28;20049;-73
2023/03/12 00:08:48;;;;;;;105.88;14.27;;;;;;;;;;5010700;28;20453;-73
2023/03/12 00:11:15;;;;;;;99.55;13.68;;;;;;;;;;5019080;28;20493;-73
2023/03/12 00:13:42;;;;;;;88.55;13.63;;;;;;;;;;5021519;28;20030;-73
2023/03/12 00:16:09;;;;;;;103.32;16.25;;;;;;;;;;5026151;28;20056;-73
2023/03/12 00:18:35;;;;;;;92.72;16.33;;;;;;;;;;5015307;28;20402;-73
2023/03/12 00:21:01;;;;;;;100.07;14.32;;;;;;;;;;5031783;28;20033;-73
2023/03/12 00:23:28;;;;;;;90.10;15.88;;;;;;;;;;5023073;28;20041;-73
2023/03/12 00:25:54;;;;;;;102.65;13.68;;;;;;;;;;5023899;28;20025;-74
2023/03/12 00:28:20;;;;;;;89.60;13.50;;;;;;;;;;5016455;28;20101;-73
2023/03/12 00:30:46;;;;;;;85.45;12.50;;;;;;;;;;5029419;28;20081;-73
2023/03/12 00:33:12;;;;;;;108.70;13.75;;;;;;;;;;5025730;28;20068;-73
2023/03/12 00:35:38;;;;;;;84.68;13.77;;;;;;;;;;5016855;28;20049;-73
2023/03/12 00:38:04;;;;;;;83.55;13.35;;;;;;;;;;5018558;28;20434;-73
2023/03/12 00:40:31;;;;;;;82.50;13.40;;;;;;;;;;5010466;28;20037;-73
2023/03/12 00:42:57;;;;;;;95.22;14.02;;;;;;;;;;5031272;28;20029;-73
2023/03/12 00:45:23;;;;;;;84.32;13.88;;;;;;;;;;5007212;28;20033;-73
2023/03/12 00:47:49;;;;;;;78.80;11.68;;;;;;;;;;5007694;28;20025;-73
2023/03/12 00:50:15;;;;;;;86.28;13.02;;;;;;;;;;5037037;28;20022;-73
2023/03/12 00:52:41;;;;;;;70.00;10.23;;;;;;;;;;4998593;28;20030;-73
2023/03/12 00:55:08;;;;;;;90.53;12.15;;;;;;;;;;5028168;28;20025;-74
2023/03/12 00:57:34;;;;;;;76.43;12.68;;;;;;;;;;5027924;28;20030;-73
2023/03/12 01:00:00;;;;;;;82.50;13.63;;;;;;;;;;5002066;28;20529;-73
2023/03/12 01:02:26;;;;;;;77.45;12.52;;;;;;;;;;5039017;28;20021;-74
2023/03/12 01:04:52;;;;;;;78.38;12.95;;;;;;;;;;5022613;28;20030;-73
2023/03/12 01:07:18;;;;;;;74.55;12.05;;;;;;;;;;5013827;28;20486;-73
2023/03/12 01:09:44;;;;;;;83.63;12.80;;;;;;;;;;5017772;28;20033;-73
2023/03/12 01:12:11;;;;;;;75.05;12.75;;;;;;;;;;5033542;28;20132;-73
2023/03/12 01:14:37;;;;;;;67.03;12.00;;;;;;;;;;5019751;28;20029;-73
2023/03/12 01:17:03;;;;;;;84.10;13.10;;;;;;;;;;5019238;28;20183;-73
2023/03/12 01:19:29;;;;;;;77.80;14.02;;;;;;;;;;5028066;28;20042;-74
2023/03/12 01:21:55;;;;;;;90.57;12.27;;;;;;;;;;4997063;28;20113;-73
2023/03/12 01:24:22;;;;;;;75.95;11.93;;;;;;;;;;4998356;28;20041;-73
2023/03/12 01:26:48;;;;;;;81.40;11.23;;;;;;;;;;5013572;28;20021;-73
2023/03/12 01:29:14;;;;;;;74.88;12.18;;;;;;;;;;5002555;28;20025;-73
2023/03/12 01:31:40;;;;;;;66.97;11.45;;;;;;;;;;5026279;28;20022;-73
2023/03/12 01:34:06;;;;;;;74.47;11.80;;;;;;;;;;5010764;28;20116;-73
2023/03/12 01:36:32;;;;;;;74.80;12.70;;;;;;;;;;5042864;28;20037;-73
2023/03/12 01:38:59;;;;;;;76.72;12.07;;;;;;;;;;5018336;28;20022;-73
2023/03/12 01:41:26;;;;;;;86.57;12.68;;;;;;;;;;5011084;28;20032;-73
2023/03/12 01:43:52;;;;;;;85.63;13.75;;;;;;;;;;5031474;28;20021;-74
2023/03/12 01:46:28;;;;;;;58.90;10.00;;;;;;;;;;5022797;28;20079;-74
2023/03/12 01:48:55;;;;;;;78.68;11.43;;;;;;;;;;5000152;28;20030;-74
2023/03/12 01:51:22;;;;;;;55.00;11.32;;;;;;;;;;5006504;28;20017;-74
2023/03/12 01:53:50;;;;;;;63.75;10.77;;;;;;;;;;5025276;28;20030;-74
2023/03/12 01:56:18;;;;;;;80.95;11.98;;;;;;;;;;5010158;28;20068;-73
2023/03/12 01:58:46;;;;;;;59.40;12.30;;;;;;;;;;5017881;28;20022;-73
2023/03/12 02:01:14;;;;;;;74.40;11.65;;;;;;;;;;5012471;28;20560;-73
2023/03/12 02:03:40;;;;;;;80.57;13.43;;;;;;;;;;5004527;28;20078;-73
2023/03/12 02:06:11;;;;;;;80.22;12.48;;;;;;;;;;5026165;28;20067;-74
2023/03/12 02:08:39;;;;;;;88.95;12.43;;;;;;;;;;5020257;28;20395;-73
2023/03/12 02:11:06;;;;;;;72.53;10.43;;;;;;;;;;5018933;28;20038;-73
2023/03/12 02:13:32;;;;;;;76.93;11.23;;;;;;;;;;5026538;28;20041;-74
2023/03/12 02:16:00;;;;;;;65.50;11.25;;;;;;;;;;5006518;28;20072;-73
2023/03/12 02:18:27;;;;;;;83.57;11.90;;;;;;;;;;5020043;28;20044;-74
2023/03/12 02:21:12;;;;;;;68.95;12.30;;;;;;;;;;5013335;28;20033;-74
2023/03/12 02:24:07;;;;;;;67.97;11.45;;;;;;;;;;5009255;28;20029;-73
2023/03/12 02:26:36;;;;;;;75.95;13.25;;;;;;;;;;5021558;28;20045;-73
2023/03/12 02:29:03;;;;;;;72.82;11.75;;;;;;;;;;5012243;28;20032;-73
2023/03/12 02:31:32;;;;;;;64.03;10.50;;;;;;;;;;5002265;28;20123;-74
2023/03/12 02:33:59;;;;;;;81.88;11.13;;;;;;;;;;5023308;28;20084;-74
2023/03/12 02:36:26;;;;;;;66.72;9.52;;;;;;;;;;5002656;28;20125;-74
2023/03/12 02:38:53;;;;;;;76.45;10.65;;;;;;;;;;5034577;28;20037;-74
2023/03/12 02:41:21;;;;;;;67.47;10.65;;;;;;;;;;5011711;28;20022;-73
2023/03/12 02:44:11;;;;;;;65.50;10.32;;;;;;;;;;5024045;28;20363;-73
2023/03/12 02:46:40;;;;;;;58.28;9.57;;;;;;;;;;5020266;28;20068;-73
2023/03/12 02:49:06;;;;;;;63.65;10.57;;;;;;;;;;5024766;28;20037;-74
2023/03/12 02:51:32;;;;;;;66.28;11.18;;;;;;;;;;5001738;28;20105;-74
2023/03/12 02:53:58;;;;;;;61.83;9.38;;;;;;;;;;5024041;28;20060;-74
2023/03/12 02:56:25;;;;;;;77.00;11.25;;;;;;;;;;4997755;28;20037;-74
2023/03/12 02:58:53;;;;;;;76.45;12.88;;;;;;;;;;5021954;28;20030;-74
2023/03/12 03:01:20;;;;;;;76.32;11.98;;;;;;;;;;5035194;28;20514;-73
2023/03/12 03:03:46;;;;;;;57.75;10.50;;;;;;;;;;5018347;28;20036;-74
2023/03/12 03:06:13;;;;;;;65.90;10.75;;;;;;;;;;5020606;28;20025;-74
2023/03/12 03:08:39;;;;;;;77.22;10.60;;;;;;;;;;5004228;28;20107;-74
2023/03/12 03:11:06;;;;;;;73.82;12.32;;;;;;;;;;5013676;28;20449;-74
2023/03/12 03:13:33;;;;;;;67.75;10.57;;;;;;;;;;5007534;28;20401;-74
2023/03/12 03:16:00;;;;;;;63.72;9.27;;;;;;;;;;5003550;28;20075;-73
2023/03/12 03:18:28;;;;;;;56.45;9.57;;;;;;;;;;5003600;28;20036;-73
2023/03/12 03:20:55;;;;;;;60.15;8.95;;;;;;;;;;5042617;28;20034;-74
2023/03/12 03:23:21;;;;;;;71.25;11.00;;;;;;;;;;5002239;28;20033;-73
2023/03/12 03:25:47;;;;;;;71.63;11.35;;;;;;;;;;5008455;28;20025;-74
2023/03/12 03:28:13;;;;;;;78.25;11.73;;;;;;;;;;5015089;28;20035;-73
2023/03/12 03:30:40;;;;;;;73.85;10.40;;;;;;;;;;5030579;28;20036;-74
2023/03/12 03:33:07;;;;;;;71.78;9.77;;;;;;;;;;5026966;28;20053;-74
2023/03/12 03:35:33;;;;;;;61.15;10.48;;;;;;;;;;5012775;28;20034;-73
2023/03/12 03:38:00;;;;;;;61.00;10.32;;;;;;;;;;5029968;28;20029;-73
2023/03/12 03:40:26;;;;;;;76.03;10.10;;;;;;;;;;5012571;28;20029;-74
2023/03/12 03:42:52;;;;;;;60.83;10.65;;;;;;;;;;5013002;28;20022;-74
2023/03/12 03:45:19;;;;;;;64.00;11.82;;;;;;;;;;5032782;28;20366;-74
2023/03/12 03:47:46;;;;;;;66.20;9.13;;;;;;;;;;5023069;28;20041;-73
2023/03/12 03:50:13;;;;;;;71.85;11.13;;;;;;;;;;5004978;28;20030;-74
2023/03/12 03:52:39;;;;;;;68.70;9.70;;;;;;;;;;5025798;28;20025;-74
2023/03/12 03:55:05;;;;;;;63.53;9.18;;;;;;;;;;5043454;28;20124;-73
2023/03/12 03:57:32;;;;;;;66.70;9.43;;;;;;;;;;4982512;28;20033;-73
2023/03/12 03:59:59;;;;;;;69.65;10.68;;;;;;;;;;5011076;28;20021;-74
2023/03/12 04:02:26;;;;;;;63.22;9.77;;;;;;;;;;5003310;28;20037;-74
2023/03/12 04:04:52;;;;;;;59.22;9.48;;;;;;;;;;5009419;28;20026;-73
2023/03/12 04:07:20;;;;;;;56.63;7.93;;;;;;;;;;5030684;28;20108;-74
2023/03/12 04:09:46;;;;;;;55.92;8.88;;;;;;;;;;5042010;28;20029;-73
2023/03/12 04:12:12;;;;;;;71.90;11.60;;;;;;;;;;5003608;28;20087;-73
2023/03/12 04:14:41;;;;;;;50.60;8.50;;;;;;;;;;5001364;28;20567;-73
2023/03/12 04:17:09;;;;;;;55.08;10.80;;;;;;;;;;5010781;28;20033;-74
2023/03/12 04:19:35;;;;;;;70.07;10.98;;;;;;;;;;4998538;28;20037;-74
2023/03/12 04:22:04;;;;;;;71.03;9.40;;;;;;;;;;5014098;28;20033;-73
2023/03/12 04:24:30;;;;;;;69.53;11.20;;;;;;;;;;5020537;28;20033;-73
2023/03/12 04:26:58;;;;;;;59.95;8.80;;;;;;;;;;4992860;28;20028;-73
2023/03/12 04:29:24;;;;;;;69.60;9.65;;;;;;;;;;5030035;28;20030;-73
2023/03/12 04:31:51;;;;;;;62.45;10.20;;;;;;;;;;5045684;28;20021;-73
2023/03/12 04:34:17;;;;;;;55.97;9.13;;;;;;;;;;5018816;28;20034;-74
2023/03/12 04:36:46;;;;;;;68.03;10.68;;;;;;;;;;5007487;28;20482;-73
2023/03/12 04:39:13;;;;;;;58.13;11.15;;;;;;;;;;4999871;28;20037;-74
2023/03/12 04:41:39;;;;;;;70.57;8.75;;;;;;;;;;5032001;28;20053;-74
2023/03/12 04:44:10;;;;;;;63.33;9.77;;;;;;;;;;5006005;28;20037;-74
2023/03/12 04:46:36;;;;;;;63.97;10.20;;;;;;;;;;5044407;28;20028;-73
2023/03/12 04:49:03;;;;;;;66.47;8.82;;;;;;;;;;5011074;28;20022;-73
2023/03/12 04:51:31;;;;;;;65.25;9.10;;;;;;;;;;5001209;28;20049;-73
2023/03/12 04:53:58;;;;;;;58.88;9.60;;;;;;;;;;5035784;28;20029;-73
2023/03/12 04:56:25;;;;;;;66.47;9.85;;;;;;;;;;5027093;28;20025;-73
2023/03/12 04:58:52;;;;;;;59.50;7.97;;;;;;;;;;5004260;28;20034;-74
2023/03/12 05:01:23;;;;;;;47.22;8.93;;;;;;;;;;5019158;28;20029;-74
2023/03/12 05:03:49;;;;;;;53.25;9.73;;;;;;;;;;5046140;28;20075;-73
2023/03/12 05:06:15;;;;;;;74.78;10.38;;;;;;;;;;5005815;28;20025;-73
2023/03/12 05:08:43;;;;;;;60.60;10.02;;;;;;;;;;5005900;28;20160;-73
2023/03/12 05:11:09;;;;;;;60.05;10.02;;;;;;;;;;5021564;28;20028;-74
2023/03/12 05:13:35;;;;;;;49.50;8.88;;;;;;;;;;5000444;28;20075;-73
2023/03/12 05:16:02;;;;;;;56.40;9.23;;;;;;;;;;5044625;28;20119;-73
2023/03/12 05:18:28;;;;;;;63.92;10.32;;;;;;;;;;5007447;28;20033;-73
2023/03/12 05:21:08;;;;;;;52.33;9.18;;;;;;;;;;5014409;28;20037;-73
2023/03/12 05:23:38;;;;;;;66.97;9.55;;;;;;;;;;5047057;28;20037;-73
2023/03/12 05:26:05;;;;;;;62.97;8.32;;;;;;;;;;5003822;28;20032;-73
2023/03/12 05:28:32;;;;;;;67.90;9.52;;;;;;;;;;5049366;28;20103;-73
2023/03/12 05:31:01;;;;;;;65.80;9.57;;;;;;;;;;5036330;28;20033;-74
2023/03/12 05:33:29;;;;;;;57.17;9.77;;;;;;;;;;5010113;28;20050;-73
2023/03/12 05:35:57;;;;;;;74.95;9.63;;;;;;;;;;4999404;28;20398;-74
2023/03/12 05:38:23;;;;;;;59.83;10.70;;;;;;;;;;4991075;28;20036;-73
2023/03/12 05:40:56;;;;;;;62.00;11.30;;;;;;;;;;4985391;28;20038;-74
2023/03/12 05:43:22;;;;;;;56.47;11.40;;;;;;;;;;4977944;28;20034;-74
2023/03/12 05:45:49;;;;;;;74.68;10.52;;;;;;;;;;4994593;28;20475;-73
2023/03/12 05:48:16;;;;;;;71.13;11.30;;;;;;;;;;5015146;28;20054;-73
2023/03/12 05:50:42;;;;;;;44.42;8.60;;;;;;;;;;4996628;28;20397;-74
2023/03/12 05:53:09;;;;;;;82.38;12.13;;;;;;;;;;4997352;28;20026;-73
2023/03/12 05:55:36;;;;;;;59.22;8.90;;;;;;;;;;4997239;28;20561;-73
2023/03/12 05:58:03;;;;;;;68.13;9.55;;;;;;;;;;5014730;28;20488;-73
2023/03/12 06:00:29;;;;;;;55.65;9.25;;;;;;;;;;5010458;28;20493;-74
2023/03/12 06:02:57;;;;;;;73.15;11.50;;;;;;;;;;4997362;28;20057;-73
2023/03/12 06:05:23;;;;;;;68.10;8.63;;;;;;;;;;5000197;28;20026;-74
2023/03/12 06:07:49;;;;;;;46.97;8.35;;;;;;;;;;5016707;28;20496;-74
2023/03/12 06:10:15;;;;;;;70.63;11.73;;;;;;;;;;5012933;28;20026;-73
2023/03/12 06:12:44;;;;;;;63.30;10.15;;;;;;;;;;5001503;28;20478;-73
2023/03/12 06:15:10;;;;;;;72.45;9.90;;;;;;;;;;5011920;28;20033;-73
2023/03/12 06:17:36;;;;;;;78.32;10.23;;;;;;;;;;4993719;28;20494;-73
2023/03/12 06:20:03;;;;;;;57.22;10.18;;;;;;;;;;5006159;28;20041;-73
2023/03/12 06:22:29;;;;;;;54.50;9.60;;;;;;;;;;4995119;28;20578;-73
2023/03/12 06:24:55;;;;;;;57.97;8.98;;;;;;;;;;5004502;28;20176;-74
2023/03/12 06:27:22;;;;;;;67.65;9.95;;;;;;;;;;5030064;28;20077;-74
2023/03/12 06:29:48;;;;;;;64.18;9.30;;;;;;;;;;4993347;28;20054;-73
2023/03/12 06:32:15;;;;;;;58.92;9.05;;;;;;;;;;5017824;28;20044;-73
2023/03/12 06:34:41;;;;;;;69.00;12.02;;;;;;;;;;5033800;28;20029;-73
2023/03/12 06:37:07;;;;;;;62.60;9.52;;;;;;;;;;5040395;28;20112;-73
2023/03/12 06:39:33;;;;;;;66.95;10.13;;;;;;;;;;5032353;28;20108;-73
2023/03/12 06:41:59;;;;;;;46.67;8.88;;;;;;;;;;5033941;28;20519;-73
2023/03/12 06:44:25;;;;;;;88.05;12.15;;;;;;;;;;5022842;28;20033;-73
2023/03/12 06:46:51;;;;;;;57.08;8.80;;;;;;;;;;5034820;28;20556;-73
2023/03/12 06:49:18;;;;;;;55.92;10.82;;;;;;;;;;5047503;28;20395;-74
2023/03/12 06:51:44;;;;;;;49.15;9.27;;;;;;;;;;5030003;28;20397;-74
2023/03/12 06:54:10;;;;;;;44.05;8.30;;;;;;;;;;5030854;28;20133;-74
2023/03/12 06:56:37;;;;;;;64.38;10.18;;;;;;;;;;5031765;28;20113;-74
2023/03/12 06:59:03;;;;;;;71.45;9.70;;;;;;;;;;5013883;28;20029;-74
2023/03/12 07:01:29;;;;;;;61.47;10.52;;;;;;;;;;5031482;28;20025;-74
2023/03/12 07:03:55;;;;;;;57.78;7.90;;;;;;;;;;5031947;28;20022;-74
2023/03/12 07:06:22;;;;;;;74.07;12.00;;;;;;;;;;5032865;28;20045;-74
2023/03/12 07:08:49;;;;;;;61.70;8.88;;;;;;;;;;5013900;28;20017;-74
2023/03/12 07:11:16;;;;;;;65.03;11.35;;;;;;;;;;5031869;28;20599;-74
2023/03/12 07:13:42;;;;;;;54.67;8.70;;;;;;;;;;5029300;28;20033;-74
2023/03/12 07:16:08;;;;;;;66.85;9.25;;;;;;;;;;5033580;28;20048;-74
2023/03/12 07:18:35;;;;;;;61.80;8.75;;;;;;;;;;5039689;28;20029;-74
2023/03/12 07:21:01;;;;;;;55.67;9.85;;;;;;;;;;5041041;28;20401;-74
2023/03/12 07:23:27;;;;;;;48.05;8.63;;;;;;;;;;5035371;28;20063;-74
2023/03/12 07:25:53;;;;;;;56.10;8.07;;;;;;;;;;5038174;28;20013;-74
2023/03/12 07:28:19;;;;;;;51.03;8.95;;;;;;;;;;5016929;28;20029;-74
2023/03/12 07:30:49;;;;;;;56.17;9.35;;;;;;;;;;5029661;28;20030;-74
2023/03/12 07:33:17;;;;;;;48.35;8.57;;;;;;;;;;5039679;28;20056;-66
2023/03/12 07:35:43;;;;;;;52.92;8.27;;;;;;;;;;5018109;28;20022;-73
2023/03/12 07:38:09;;;;;;;66.70;9.32;;;;;;;;;;5037821;28;20444;-74
2023/03/12 07:40:36;;;;;;;60.40;10.15;;;;;;;;;;5036516;28;20051;-74
2023/03/12 07:43:05;;;;;;;57.33;9.80;;;;;;;;;;5024892;28;20025;-74
2023/03/12 07:45:31;;;;;;;57.05;8.90;;;;;;;;;;5024773;28;20018;-71
2023/03/12 07:47:58;;;;;;;58.85;10.60;;;;;;;;;;5029517;28;20022;-71
2023/03/12 07:50:24;;;;;;;61.60;8.70;;;;;;;;;;5030480;28;20091;-77
2023/03/12 07:52:50;;;;;;;68.60;9.82;;;;;;;;;;5024403;28;20029;-76
2023/03/12 07:55:17;;;;;;;57.42;9.25;;;;;;;;;;5014416;28;20124;-76
2023/03/12 07:57:43;;;;;;;63.20;9.02;;;;;;;;;;5028017;28;20434;-76
2023/03/12 08:00:10;;;;;;;50.92;8.93;;;;;;;;;;5035279;28;20029;-76
2023/03/12 08:02:39;;;;;;;47.45;8.23;;;;;;;;;;5032508;28;20034;-76
2023/03/12 08:05:05;;;;;;;51.05;8.85;;;;;;;;;;5030968;28;20017;-77
2023/03/12 08:07:33;;;;;;;57.40;8.82;;;;;;;;;;5036614;28;20524;-77
2023/03/12 08:10:00;;;;;;;61.03;8.80;;;;;;;;;;5032235;28;20013;-77
2023/03/12 08:12:27;;;;;;;52.33;9.65;;;;;;;;;;5032933;28;20021;-77
2023/03/12 08:14:53;;;;;;;50.30;9.75;;;;;;;;;;5033029;28;20036;-77
2023/03/12 08:17:19;;;;;;;52.53;9.32;;;;;;;;;;5028060;28;20033;-77
2023/03/12 08:19:46;;;;;;;63.72;9.57;;;;;;;;;;5007601;28;20478;-77
2023/03/12 08:22:12;;;;;;;64.22;11.50;;;;;;;;;;5010996;28;20057;-77
2023/03/12 08:24:38;;;;;;;56.42;9.05;;;;;;;;;;5035490;28;20513;-77
2023/03/12 08:27:04;;;;;;;51.72;8.52;;;;;;;;;;5013155;28;20524;-77
2023/03/12 08:29:32;;;;;;;52.65;10.18;;;;;;;;;;5028655;28;20424;-78
2023/03/12 08:31:58;;;;;;;44.58;8.52;;;;;;;;;;5030434;28;20025;-77
2023/03/12 08:34:24;;;;;;;44.22;7.53;;;;;;;;;;5021973;28;20036;-77
2023/03/12 08:36:50;;;;;;;58.42;7.90;;;;;;;;;;5037642;28;20491;-77
2023/03/12 08:39:17;;;;;;;61.90;8.85;;;;;;;;;;5029176;28;20033;-77
2023/03/12 08:41:43;;;;;;;46.55;7.35;;;;;;;;;;5031347;28;20033;-75
2023/03/12 08:44:09;;;;;;;46.50;7.50;;;;;;;;;;5030923;28;20041;-75
2023/03/12 08:46:35;;;;;;;48.20;7.10;;;;;;;;;;5016130;28;20034;-75
2023/03/12 08:49:01;;;;;;;52.25;8.50;;;;;;;;;;5002643;28;20032;-74
2023/03/12 08:51:27;;;;;;;50.92;7.40;;;;;;;;;;5028264;28;20022;-74
2023/03/12 08:53:53;;;;;;;56.33;9.65;;;;;;;;;;5023892;28;20109;-74
2023/03/12 08:56:20;;;;;;;41.28;6.70;;;;;;;;;;5029413;28;20123;-75
2023/03/12 08:58:46;;;;;;;51.63;8.15;;;;;;;;;;5025351;28;20079;-75
2023/03/12 09:01:13;;;;;;;49.22;8.15;;;;;;;;;;5025191;28;20033;-75
2023/03/12 09:03:40;;;;;;;41.78;6.95;;;;;;;;;;5030470;28;20397;-74
2023/03/12 09:06:13;;;;;;;34.40;6.43;;;;;;;;;;5028327;28;20122;-76
2023/03/12 09:08:40;;;;;;;39.08;7.57;;;;;;;;;;5028747;28;20035;-76
2023/03/12 09:11:07;;;;;;;37.67;5.68;;;;;;;;;;5020645;28;20029;-75
2023/03/12 09:13:33;;;;;;;40.03;6.28;;;;;;;;;;5019211;28;20121;-76
2023/03/12 09:16:03;;;;;;;34.53;6.45;;;;;;;;;;5030379;28;20029;-75
2023/03/12 09:18:29;;;;;;;38.63;7.93;;;;;;;;;;5023366;28;20038;-77
2023/03/12 09:20:56;;;;;;;45.58;7.55;;;;;;;;;;5027172;28;20060;-76
2023/03/12 09:23:22;;;;;;;38.95;7.20;;;;;;;;;;5029914;28;20057;-76
2023/03/12 09:25:48;;;;;;;41.75;7.47;;;;;;;;;;5028562;28;20033;-75
2023/03/12 09:28:15;;;;;;;48.08;7.10;;;;;;;;;;5030697;28;20026;-75
2023/03/12 09:30:41;;;;;;;39.90;8.13;;;;;;;;;;5030502;28;20021;-75
2023/03/12 09:33:07;;;;;;;39.80;7.47;;;;;;;;;;5036381;28;20040;-76
2023/03/12 09:35:33;;;;;;;41.15;6.78;;;;;;;;;;5020030;28;20119;-75
2023/03/12 09:38:00;;;;;;;34.30;6.18;;;;;;;;;;5024199;28;20026;-76
2023/03/12 09:40:30;;;;;;;47.25;6.13;;;;;;;;;;5031782;28;20026;-75
2023/03/12 09:43:07;;;;;;;37.80;6.88;;;;;;;;;;5010428;28;20378;-75
2023/03/12 09:45:44;;;;;;;37.22;5.95;;;;;;;;;;5027250;28;20212;-75
2023/03/12 09:48:32;;;;;;;44.25;7.32;;;;;;;;;;5033351;28;20030;-76
2023/03/12 09:51:01;;;;;;;43.40;6.90;;;;;;;;;;5040073;28;20162;-75
2023/03/12 09:53:50;;;;;;;37.28;7.07;;;;;;;;;;5033445;28;20041;-75
2023/03/12 09:56:18;;;;;;;46.97;6.85;;;;;;;;;;5022625;28;20485;-75
2023/03/12 09:58:47;;;;;;;45.08;8.07;;;;;;;;;;5031879;28;20061;-75
2023/03/12 10:01:25;;;;;;;41.25;8.02;;;;;;;;;;5026331;28;20038;-75
2023/03/12 10:04:04;;;;;;;41.55;6.63;;;;;;;;;;5023045;28;20409;-75
2023/03/12 10:06:38;;;;;;;40.33;6.97;;;;;;;;;;5027941;28;20068;-75
2023/03/12 10:09:04;;;;;;;50.72;7.70;;;;;;;;;;5048468;28;20038;-75
2023/03/12 10:11:45;;;;;;;37.00;6.80;;;;;;;;;;5036132;28;20100;-75
2023/03/12 10:14:30;;;;;;;39.13;7.25;;;;;;;;;;5032201;28;20025;-75
2023/03/12 10:17:15;;;;;;;38.97;7.22;;;;;;;;;;5034854;28;20021;-75
2023/03/12 10:19:50;;;;;;;43.72;6.65;;;;;;;;;;5004989;28;20091;-75
2023/03/12 10:22:35;;;;;;;27.15;6.78;;;;;;;;;;5031204;28;20048;-76
2023/03/12 10:25:08;;;;;;;20.45;4.60;;;;;;;;;;5027518;28;20025;-75
2023/03/12 10:27:38;;;;;;;27.27;4.38;;;;;;;;;;5025765;28;20037;-75
2023/03/12 10:30:13;;;;;;;34.80;4.75;;;;;;;;;;5029390;28;20025;-76
2023/03/12 10:32:41;;;;;;;21.10;4.68;;;;;;;;;;5023056;28;20054;-75
2023/03/12 10:35:15;;;;;;;23.17;5.05;;;;;;;;;;5024109;28;20091;-75
2023/03/12 10:37:48;;;;;;;21.92;4.78;;;;;;;;;;5041475;28;20031;-75
2023/03/12 10:40:19;;;;;;;18.88;4.03;;;;;;;;;;5033159;28;20554;-75
2023/03/12 10:42:45;;;;;;;22.45;3.83;;;;;;;;;;5027207;28;20492;-75
2023/03/12 10:45:11;;;;;;;26.55;4.60;;;;;;;;;;5032092;28;20497;-75
2023/03/12 10:47:39;;;;;;;23.20;4.22;;;;;;;;;;5030157;28;20504;-75
2023/03/12 10:50:19;;;;;;;32.15;5.20;;;;;;;;;;5031199;28;20022;-75
2023/03/12 10:52:46;;;;;;;27.60;4.72;;;;;;;;;;5019522;28;20543;-75
2023/03/12 10:55:19;;;;;;;21.60;3.67;;;;;;;;;;5027909;28;20029;-75
2023/03/12 10:57:46;;;;;;;28.20;4.72;;;;;;;;;;5029085;28;20028;-75
2023/03/12 11:00:17;;;;;;;17.13;4.15;;;;;;;;;;5029028;28;20086;-75
2023/03/12 11:02:47;;;;;;;26.58;4.55;;;;;;;;;;5029012;28;20056;-75
2023/03/12 11:05:19;;;;;;;21.45;4.63;;;;;;;;;;5028183;28;20022;-75
2023/03/12 11:07:45;;;;;;;23.08;4.07;;;;;;;;;;5021173;28;20105;-75
2023/03/12 11:10:11;;;;;;;26.55;4.10;;;;;;;;;;5033666;28;20094;-76
2023/03/12 11:12:38;;;;;;;19.52;4.70;;;;;;;;;;5025707;28;20103;-76
2023/03/12 11:15:19;;;;;;;19.98;4.22;;;;;;;;;;5046223;28;20405;-76
2023/03/12 11:17:45;;;;;;;19.88;5.32;;;;;;;;;;5030464;28;20059;-75
2023/03/12 11:20:18;;;;;;;19.42;4.78;;;;;;;;;;5035795;28;20032;-75
2023/03/12 11:22:44;;;;;;;17.85;3.85;;;;;;;;;;5037121;28;20068;-76
2023/03/12 11:25:19;;;;;;;13.55;3.53;;;;;;;;;;5032485;28;20421;-76
2023/03/12 11:27:49;;;;;;;16.30;2.95;;;;;;;;;;5032522;28;20100;-76
2023/03/12 11:30:16;;;;;;;21.00;3.80;;;;;;;;;;5032201;28;20037;-76
2023/03/12 11:32:45;;;;;;;14.75;3.47;;;;;;;;;;5031913;28;20058;-76
2023/03/12 11:35:12;;;;;;;18.95;3.70;;;;;;;;;;5031992;28;20124;-76
2023/03/12 11:37:56;;;;;;;21.08;3.83;;;;;;;;;;5033550;28;20044;-78
2023/03/12 11:40:42;;;;;;;22.83;4.15;;;;;;;;;;5031586;28;20029;-78
2023/03/12 11:43:27;;;;;;;17.90;3.88;;;;;;;;;;5027123;28;20029;-78
2023/03/12 11:45:53;;;;;;;21.75;3.40;;;;;;;;;;5019012;28;20477;-73
2023/03/12 11:48:31;;;;;;;17.92;3.65;;;;;;;;;;5010156;28;20133;-78
2023/03/12 11:50:57;;;;;;;20.23;4.07;;;;;;;;;;5027373;28;20025;-78
2023/03/12 11:53:29;;;;;;;29.20;4.40;;;;;;;;;;5028403;28;20054;-79
2023/03/12 11:55:58;;;;;;;19.13;3.60;;;;;;;;;;5031754;28;20113;-79
2023/03/12 11:58:25;;;;;;;22.88;2.80;;;;;;;;;;5027143;28;20029;-78
2023/03/12 12:00:51;;;;;;;18.42;3.33;;;;;;;;;;5030096;28;20033;-79
2023/03/12 12:03:39;;;;;;;22.52;3.78;;;;;;;;;;5027985;28;20072;-79
2023/03/12 12:06:05;;;;;;;18.88;3.95;;;;;;;;;;5026044;28;20045;-79
2023/03/12 12:08:37;;;;;;;17.75;3.42;;;;;;;;;;5025362;28;20030;-79
2023/03/12 12:11:22;;;;;;;26.90;4.07;;;;;;;;;;5030016;28;20063;-79
2023/03/12 12:13:57;;;;;;;18.05;3.75;;;;;;;;;;5030313;28;20083;-79
2023/03/12 12:16:38;;;;;;;21.30;4.13;;;;;;;;;;5027037;28;20033;-79
2023/03/12 12:19:20;;;;;;;22.95;4.00;;;;;;;;;;5028447;28;20099;-79
2023/03/12 12:22:00;;;;;;;22.70;4.78;;;;;;;;;;5028457;28;20037;-79
2023/03/12 12:24:26;;;;;;;20.00;3.80;;;;;;;;;;5027509;28;20071;-79
2023/03/12 12:26:57;;;;;;;16.17;4.00;;;;;;;;;;5027238;28;20025;-79
2023/03/12 12:29:29;;;;;;;27.33;4.32;;;;;;;;;;5024726;28;20056;-79
2023/03/12 12:31:56;;;;;;;20.27;4.77;;;;;;;;;;5023111;28;20075;-79
2023/03/12 12:34:25;;;;;;;28.23;5.03;;;;;;;;;;5026764;28;20090;-79
2023/03/12 12:36:54;;;;;;;14.15;3.10;;;;;;;;;;5025728;28;20029;-79
2023/03/12 12:39:39;;;;;;;19.35;4.18;;;;;;;;;;5019684;28;20120;-79
2023/03/12 12:42:10;;;;;;;15.32;3.17;;;;;;;;;;5030719;28;20436;-77
2023/03/12 12:44:40;;;;;;;22.20;3.95;;;;;;;;;;5027692;28;20110;-78
2023/03/12 12:47:12;;;;;;;20.33;4.18;;;;;;;;;;5029502;28;20108;-78
2023/03/12 12:49:43;;;;;;;18.88;3.58;;;;;;;;;;5025949;28;20029;-78
2023/03/12 12:52:12;;;;;;;22.25;3.67;;;;;;;;;;5026245;28;20195;-78
2023/03/12 12:54:38;;;;;;;22.27;3.65;;;;;;;;;;5026221;28;20512;-78
2023/03/12 12:57:12;;;;;;;13.85;2.92;;;;;;;;;;5024156;28;20028;-78
2023/03/12 12:59:57;;;;;;;21.40;3.10;;;;;;;;;;5029940;28;20024;-78
2023/03/12 13:02:25;;;;;;;17.08;2.92;;;;;;;;;;5031329;28;20049;-77
2023/03/12 13:04:54;;;;;;;19.52;2.53;;;;;;;;;;5015888;28;20468;-77
2023/03/12 13:07:20;;;;;;;17.52;3.65;;;;;;;;;;5031531;28;20030;-78
2023/03/12 13:09:51;;;;;;;16.65;3.33;;;;;;;;;;5030338;28;20033;-78
2023/03/12 13:12:36;;;;;;;10.88;2.08;;;;;;;;;;5029429;28;20022;-78
2023/03/12 13:15:22;;;;;;;12.98;2.60;;;;;;;;;;5030820;28;20039;-78
2023/03/12 13:17:51;;;;;;;7.85;1.80;;;;;;;;;;5033638;28;20028;-78
2023/03/12 13:20:22;;;;;;;10.07;1.80;;;;;;;;;;5032285;28;20091;-78
2023/03/12 13:23:08;;;;;;;11.55;2.25;;;;;;;;;;5035575;28;20570;-78
2023/03/12 13:25:51;;;;;;;10.13;1.40;;;;;;;;;;5033398;28;20040;-78
2023/03/12 13:28:17;;;;;;;;;;;;;;;;;;5030148;28;20021;-78
2023/03/12 13:30:47;;;;;;;8.35;1.13;;;;;;;;;;5045336;28;19925;-77
2023/03/12 13:33:17;;;;;;;3.63;1.23;;;;;;;;;;5030339;28;20057;-78
2023/03/12 13:35:47;;;;;;;5.07;1.42;;;;;;;;;;5032121;28;20035;-77
2023/03/12 13:38:33;;;;;;;4.45;0.80;;;;;;;;;;5047687;28;20021;-77
2023/03/12 13:41:00;;;;;;;4.10;0.80;;;;;;;;;;5035859;28;20025;-77
2023/03/12 13:43:32;;;;;;;2.65;0.70;;;;;;;;;;5032915;28;20025;-77
2023/03/12 13:46:04;;;;;;;4.80;0.82;;;;;;;;;;5034096;28;20433;-78
2023/03/12 13:48:30;;;;;;;;;;;;;;;;;;5031920;28;20350;-78
2023/03/12 13:50:58;;;;;;;4.82;0.70;;;;;;;;;;5035116;28;19959;-77
2023/03/12 13:53:32;;;;;;;1.13;0.82;;;;;;;;;;5034485;28;20120;-77
2023/03/12 13:56:00;;;;;;;1.98;0.93;;;;;;;;;;5025455;28;20482;-77
2023/03/12 13:58:27;;;;;;;4.97;0.93;;;;;;;;;;5025774;28;20025;-77
2023/03/12 14:00:56;;;;;;;3.90;0.60;;;;;;;;;;5033872;28;20053;-77
2023/03/12 14:03:29;;;;;;;3.45;0.73;;;;;;;;;;5036457;28;20445;-77
2023/03/12 14:06:00;;;;;;;2.83;0.63;;;;;;;;;;5011596;28;20025;-77
2023/03/12 14:08:35;;;;;;;3.95;0.85;;;;;;;;;;5045112;28;20123;-77
2023/03/12 14:11:20;;;;;;;2.28;0.77;;;;;;;;;;5036412;28;20104;-77
2023/03/12 14:13:57;;;;;;;0.57;0.45;;;;;;;;;;5030579;28;20055;-77
2023/03/12 14:16:48;;;;;;;2.17;0.60;;;;;;;;;;5026829;28;20026;-77
2023/03/12 14:19:15;;;;;;;1.92;0.47;;;;;;;;;;5026917;28;20052;-77
2023/03/12 14:21:43;;;;;;;2.22;0.50;;;;;;;;;;5014389;28;20076;-77
2023/03/12 14:24:16;;;;;;;1.63;0.40;;;;;;;;;;5020219;28;20109;-76
2023/03/12 14:26:45;;;;;;;2.35;0.57;;;;;;;;;;5025611;28;20064;-76
2023/03/12 14:29:20;;;;;;;0.95;0.65;;;;;;;;;;5017364;28;20440;-77
2023/03/12 14:31:47;;;;;;;1.17;0.40;;;;;;;;;;5020732;28;20022;-75
2023/03/12 14:34:24;;;;;;;0.82;0.50;;;;;;;;;;5016587;28;20026;-77
2023/03/12 14:37:23;;;;;;;1.55;0.40;;;;;;;;;;5035138;28;20102;-78